createdAt,value
2022-12-08T00:01:33.923Z,3.83
2022-12-08T00:04:03.512Z,3.83
2022-12-08T00:06:52.945Z,3.61
2022-12-08T00:09:31.994Z,3.48
2022-12-08T00:12:01.997Z,3.65
2022-12-08T00:14:35.877Z,3.66
2022-12-08T00:17:04.058Z,3.71
2022-12-08T00:19:32.819Z,3.71
2022-12-08T00:22:00.495Z,3.59
2022-12-08T00:24:32.610Z,3.60
2022-12-08T00:27:01.065Z,3.58
2022-12-08T00:29:28.980Z,3.48
2022-12-08T00:31:56.699Z,3.50
2022-12-08T00:34:24.359Z,3.54
2022-12-08T00:36:51.620Z,3.57
2022-12-08T00:39:19.187Z,3.58
2022-12-08T00:42:06.033Z,3.46
2022-12-08T00:44:33.228Z,3.31
2022-12-08T00:47:00.889Z,3.08
2022-12-08T00:49:28.102Z,3.04
2022-12-08T00:51:55.492Z,3.08
2022-12-08T00:54:23.833Z,2.97
2022-12-08T00:56:51.343Z,3.06
2022-12-08T00:59:18.958Z,3.22
2022-12-08T01:01:47.311Z,3.18
2022-12-08T01:04:17.043Z,3.10
2022-12-08T01:06:45.553Z,3.12
2022-12-08T01:09:15.359Z,2.96
2022-12-08T01:11:44.614Z,3.04
2022-12-08T01:14:13.733Z,3.29
2022-12-08T01:16:43.851Z,3.27
2022-12-08T01:19:13.085Z,3.30
2022-12-08T01:21:41.315Z,3.35
2022-12-08T01:24:12.664Z,3.22
2022-12-08T01:26:40.457Z,3.33
2022-12-08T01:29:08.455Z,3.11
2022-12-08T01:31:35.826Z,3.12
2022-12-08T01:34:03.387Z,3.06
2022-12-08T01:36:33.014Z,2.99
2022-12-08T01:39:01.608Z,2.95
2022-12-08T01:41:32.192Z,3.11
2022-12-08T01:44:08.379Z,3.20
2022-12-08T01:46:38.892Z,3.13
2022-12-08T01:49:16.046Z,3.26
2022-12-08T01:51:59.227Z,3.22
2022-12-08T01:54:30.772Z,3.04
2022-12-08T01:57:23.565Z,2.96
2022-12-08T01:59:57.107Z,2.90
2022-12-08T02:02:30.404Z,2.78
2022-12-08T02:04:57.959Z,2.92
2022-12-08T02:07:25.711Z,2.60
2022-12-08T02:09:53.966Z,2.70
2022-12-08T02:12:21.722Z,2.85
2022-12-08T02:14:49.551Z,2.74
2022-12-08T02:17:47.993Z,2.83
2022-12-08T02:20:35.288Z,2.84
2022-12-08T02:23:02.505Z,2.76
2022-12-08T02:25:40.595Z,2.64
2022-12-08T02:28:28.287Z,2.68
2022-12-08T02:31:14.395Z,2.62
2022-12-08T02:34:22.993Z,2.56
2022-12-08T02:37:17.716Z,2.52
2022-12-08T02:40:07.428Z,2.50
2022-12-08T02:43:00.860Z,2.44
2022-12-08T02:45:43.937Z,2.53
2022-12-08T02:48:12.795Z,2.60
2022-12-08T02:50:40.142Z,2.62
2022-12-08T02:55:43.358Z,2.88
2022-12-08T02:58:26.803Z,2.90
2022-12-08T03:01:30.102Z,2.85
2022-12-08T03:04:04.805Z,2.92
2022-12-08T03:06:51.754Z,3.04
2022-12-08T03:09:30.530Z,2.99
2022-12-08T03:12:12.941Z,2.93
2022-12-08T03:14:46.721Z,3.09
2022-12-08T03:17:18.315Z,3.20
2022-12-08T03:19:48.310Z,3.13
2022-12-08T03:22:20.007Z,2.79
2022-12-08T03:24:48.509Z,2.72
2022-12-08T03:27:22.464Z,2.78
2022-12-08T03:29:52.312Z,2.77
2022-12-08T03:32:30.031Z,3.00
2022-12-08T03:35:00.910Z,3.21
2022-12-08T03:37:28.948Z,3.16
2022-12-08T03:39:56.652Z,3.11
2022-12-08T03:42:23.935Z,3.14
2022-12-08T03:44:51.810Z,3.23
2022-12-08T03:47:20.419Z,3.39
2022-12-08T03:49:47.934Z,3.29
2022-12-08T03:52:16.030Z,3.40
2022-12-08T03:54:43.449Z,3.47
2022-12-08T03:57:10.726Z,3.57
2022-12-08T03:59:38.473Z,3.52
2022-12-08T04:02:05.846Z,3.50
2022-12-08T04:04:33.735Z,3.51
2022-12-08T04:07:01.078Z,3.56
2022-12-08T04:09:28.450Z,3.18
2022-12-08T04:11:56.334Z,3.09
2022-12-08T04:14:24.636Z,2.96
2022-12-08T04:16:51.933Z,3.07
2022-12-08T04:19:19.960Z,2.84
2022-12-08T04:21:47.311Z,2.92
2022-12-08T04:24:14.715Z,3.19
2022-12-08T04:26:43.456Z,3.46
2022-12-08T04:29:10.749Z,3.51
2022-12-08T04:31:38.403Z,3.60
2022-12-08T04:34:06.164Z,3.85
2022-12-08T04:36:33.632Z,3.73
2022-12-08T04:39:01.091Z,3.74
2022-12-08T04:41:28.715Z,3.76
2022-12-08T04:43:55.949Z,3.75
2022-12-08T04:46:23.281Z,3.84
2022-12-08T04:48:51.345Z,3.86
2022-12-08T04:51:20.921Z,3.76
2022-12-08T04:53:48.584Z,3.68
2022-12-08T04:56:19.207Z,3.51
2022-12-08T04:58:46.943Z,3.48
2022-12-08T05:01:14.935Z,3.47
2022-12-08T05:03:42.646Z,3.48
2022-12-08T05:06:14.314Z,3.59
2022-12-08T05:08:43.071Z,3.68
2022-12-08T05:11:12.806Z,3.80
2022-12-08T05:13:39.962Z,3.60
2022-12-08T05:16:13.737Z,3.54
2022-12-08T05:18:42.215Z,3.58
2022-12-08T05:21:09.752Z,3.61
2022-12-08T05:23:37.393Z,3.87
2022-12-08T05:26:05.232Z,3.93
2022-12-08T05:28:42.277Z,3.96
2022-12-08T05:31:12.363Z,3.99
2022-12-08T05:33:40.672Z,4.01
2022-12-08T05:36:09.315Z,4.07
2022-12-08T05:38:37.122Z,4.04
2022-12-08T05:41:06.297Z,3.39
2022-12-08T05:43:33.931Z,3.71
2022-12-08T05:46:02.047Z,3.51
2022-12-08T05:48:29.375Z,3.67
2022-12-08T05:50:57.066Z,3.75
2022-12-08T05:53:24.911Z,3.72
2022-12-08T05:55:52.288Z,3.78
2022-12-08T05:58:22.217Z,3.49
2022-12-08T06:00:50.874Z,3.31
2022-12-08T06:03:19.701Z,3.37
2022-12-08T06:05:47.715Z,3.49
2022-12-08T06:08:15.240Z,3.42
2022-12-08T06:10:45.245Z,3.42
2022-12-08T06:13:13.779Z,3.53
2022-12-08T06:15:41.491Z,3.59
2022-12-08T06:18:10.252Z,3.68
2022-12-08T06:20:37.646Z,3.83
2022-12-08T06:23:04.946Z,3.96
2022-12-08T06:25:32.730Z,4.14
2022-12-08T06:28:01.376Z,4.48
2022-12-08T06:30:28.909Z,4.76
2022-12-08T06:32:56.616Z,5.06
2022-12-08T06:35:23.953Z,5.03
2022-12-08T06:37:51.956Z,5.12
2022-12-08T06:40:20.219Z,5.03
2022-12-08T06:42:47.883Z,5.24
2022-12-08T06:45:17.350Z,5.25
2022-12-08T06:47:45.044Z,4.81
2022-12-08T06:50:14.083Z,4.61
2022-12-08T06:52:55.740Z,4.70
2022-12-08T06:55:57.312Z,4.78
2022-12-08T06:58:14.559Z,4.84
2022-12-08T07:00:42.338Z,4.70
2022-12-08T07:03:11.304Z,4.81
2022-12-08T07:05:39.272Z,4.94
2022-12-08T07:08:08.972Z,5.02
2022-12-08T07:10:37.216Z,5.29
2022-12-08T07:13:04.727Z,5.54
2022-12-08T07:15:35.102Z,5.72
2022-12-08T07:18:11.639Z,5.81
2022-12-08T07:20:49.472Z,5.74
2022-12-08T07:23:28.095Z,6.17
2022-12-08T07:25:55.948Z,5.95
2022-12-08T07:28:23.308Z,6.01
2022-12-08T07:30:50.729Z,6.23
2022-12-08T07:33:18.477Z,6.43
2022-12-08T07:35:53.687Z,6.47
2022-12-08T07:38:21.314Z,6.74
2022-12-08T07:40:53.350Z,6.85
2022-12-08T07:43:29.736Z,6.83
2022-12-08T07:45:58.328Z,6.75
2022-12-08T07:48:38.217Z,6.77
2022-12-08T07:51:17.600Z,6.85
2022-12-08T07:53:54.150Z,6.97
2022-12-08T07:56:23.263Z,7.20
2022-12-08T07:58:51.179Z,7.47
2022-12-08T08:01:30.213Z,7.03
2022-12-08T08:04:01.987Z,7.00
2022-12-08T08:06:29.372Z,7.03
2022-12-08T08:08:57.029Z,7.02
2022-12-08T08:11:24.766Z,7.04
2022-12-08T08:18:28.912Z,7.15
2022-12-08T08:21:53.959Z,7.15
2022-12-08T08:25:08.905Z,7.21
2022-12-08T08:28:02.337Z,7.16
2022-12-08T08:30:59.704Z,7.12
2022-12-08T08:47:32.826Z,7.41
2022-12-08T08:50:05.531Z,7.54
2022-12-08T08:52:47.397Z,7.77
2022-12-08T08:58:08.695Z,8.69
2022-12-08T09:00:36.586Z,8.47
2022-12-08T09:04:01.458Z,8.68
2022-12-08T09:06:29.748Z,9.24
2022-12-08T09:09:23.536Z,9.34
2022-12-08T09:11:51.871Z,9.61
2022-12-08T09:14:19.404Z,9.75
2022-12-08T09:17:00.758Z,9.65
2022-12-08T09:19:36.271Z,9.71
2022-12-08T09:22:15.260Z,9.84
2022-12-08T09:25:16.344Z,9.58
2022-12-08T09:28:00.157Z,10.05
2022-12-08T09:30:53.572Z,10.47
2022-12-08T09:33:37.779Z,10.85
2022-12-08T09:36:10.519Z,10.77
2022-12-08T09:38:58.083Z,10.77
2022-12-08T09:41:57.566Z,10.75
2022-12-08T09:45:12.310Z,11.01
2022-12-08T09:48:19.695Z,11.12
2022-12-08T09:51:07.068Z,11.22
2022-12-08T09:54:19.994Z,11.61
2022-12-08T09:57:02.429Z,12.08
2022-12-08T10:00:00.316Z,12.29
2022-12-08T10:02:43.952Z,12.41
2022-12-08T10:05:36.841Z,12.57
2022-12-08T10:08:40.714Z,13.35
2022-12-08T10:12:01.872Z,13.09
2022-12-08T10:14:56.214Z,12.97
2022-12-08T10:18:06.419Z,12.74
2022-12-08T10:21:23.408Z,12.97
2022-12-08T10:24:13.575Z,13.25
2022-12-08T10:26:49.868Z,13.46
2022-12-08T10:29:48.061Z,12.88
2022-12-08T10:32:26.166Z,13.42
2022-12-08T10:35:04.921Z,14.08
2022-12-08T10:37:37.382Z,14.59
2022-12-08T10:40:15.865Z,14.72
2022-12-08T10:42:51.740Z,15.14
2022-12-08T10:45:37.573Z,15.42
2022-12-08T10:48:13.586Z,15.19
2022-12-08T10:50:53.200Z,14.85
2022-12-08T10:53:25.195Z,14.30
2022-12-08T10:56:02.243Z,14.52
2022-12-08T10:58:43.956Z,15.30
2022-12-08T11:01:22.164Z,15.40
2022-12-08T11:03:52.587Z,15.61
2022-12-08T11:06:24.095Z,15.96
2022-12-08T11:08:59.660Z,15.56
2022-12-08T11:12:00.746Z,15.67
2022-12-08T11:14:45.952Z,15.18
2022-12-08T11:17:22.405Z,15.04
2022-12-08T11:20:03.797Z,15.07
2022-12-08T11:22:35.299Z,14.97
2022-12-08T11:25:08.810Z,14.76
2022-12-08T11:27:38.881Z,14.42
2022-12-08T11:30:30.058Z,14.15
2022-12-08T11:33:06.815Z,13.62
2022-12-08T11:35:38.833Z,13.68
2022-12-08T11:38:21.675Z,13.82
2022-12-08T11:41:01.313Z,13.47
2022-12-08T11:43:34.865Z,13.51
2022-12-08T11:46:12.984Z,13.19
2022-12-08T11:49:06.951Z,12.96
2022-12-08T11:52:14.120Z,12.73
2022-12-08T11:55:26.739Z,12.89
2022-12-08T11:57:57.450Z,13.01
2022-12-08T12:00:25.558Z,13.06
2022-12-08T12:03:29.949Z,13.12
2022-12-08T12:06:37.608Z,13.13
2022-12-08T12:09:19.583Z,13.68
2022-12-08T12:12:18.520Z,13.94
2022-12-08T12:15:17.651Z,14.16
2022-12-08T12:18:00.147Z,14.08
2022-12-08T12:20:57.260Z,14.16
2022-12-08T12:23:45.074Z,13.72
2022-12-08T12:26:25.363Z,13.83
2022-12-08T12:29:20.980Z,13.71
2022-12-08T12:31:53.736Z,13.85
2022-12-08T12:34:25.174Z,14.15
2022-12-08T12:36:57.785Z,14.05
2022-12-08T12:39:32.474Z,14.60
2022-12-08T12:42:05.523Z,15.09
2022-12-08T12:44:39.774Z,14.87
2022-12-08T12:47:13.278Z,14.33
2022-12-08T12:49:40.592Z,13.85
2022-12-08T12:52:20.470Z,13.23
2022-12-08T12:54:50.958Z,13.35
2022-12-08T12:57:18.633Z,12.77
2022-12-08T12:59:55.822Z,12.90
2022-12-08T13:02:30.963Z,12.84
2022-12-08T13:05:11.680Z,12.53
2022-12-08T13:07:54.330Z,12.46
2022-12-08T13:10:37.545Z,12.29
2022-12-08T13:13:12.366Z,12.30
2022-12-08T13:15:55.049Z,12.19
2022-12-08T13:18:46.595Z,11.94
2022-12-08T13:21:18.695Z,11.52
2022-12-08T13:24:14.120Z,11.41
2022-12-08T13:27:11.144Z,11.42
2022-12-08T13:29:39.620Z,11.17
2022-12-08T13:32:09.933Z,11.12
2022-12-08T13:34:56.445Z,11.10
2022-12-08T13:37:54.510Z,10.97
2022-12-08T13:40:30.428Z,10.79
2022-12-08T13:43:10.020Z,10.84
2022-12-08T13:46:41.840Z,10.85
2022-12-08T13:49:45.348Z,10.71
2022-12-08T13:57:37.018Z,10.39
2022-12-08T14:00:19.748Z,10.31
2022-12-08T14:02:50.222Z,10.19
2022-12-08T14:05:34.608Z,9.90
2022-12-08T14:09:00.062Z,9.87
2022-12-08T14:11:34.338Z,9.65
2022-12-08T14:14:09.796Z,9.55
2022-12-08T14:16:39.889Z,9.56
2022-12-08T14:19:17.911Z,9.53
2022-12-08T14:21:54.745Z,9.41
2022-12-08T14:24:24.615Z,9.22
2022-12-08T14:26:55.039Z,9.25
2022-12-08T14:29:41.693Z,9.17
2022-12-08T14:32:42.884Z,9.23
2022-12-08T14:35:10.580Z,9.20
2022-12-08T14:37:47.567Z,9.11
2022-12-08T14:40:23.547Z,8.92
2022-12-08T14:42:54.454Z,8.92
2022-12-08T14:45:22.295Z,8.80
2022-12-08T14:47:49.670Z,8.85
2022-12-08T14:50:35.869Z,8.96
2022-12-08T14:53:03.980Z,8.85
2022-12-08T14:55:37.198Z,8.86
2022-12-08T14:58:05.476Z,8.85
2022-12-08T15:00:33.663Z,8.82
2022-12-08T15:03:06.782Z,8.84
2022-12-08T15:05:34.529Z,8.74
2022-12-08T15:08:04.102Z,8.68
2022-12-08T15:10:35.618Z,8.62
2022-12-08T15:13:11.042Z,8.54
2022-12-08T15:15:55.970Z,8.55
2022-12-08T15:18:37.664Z,8.52
2022-12-08T15:21:09.184Z,8.51
2022-12-08T15:23:45.164Z,8.50
2022-12-08T15:26:21.788Z,8.53
2022-12-08T15:28:49.949Z,8.46
2022-12-08T15:31:20.034Z,8.48
2022-12-08T15:33:47.960Z,8.55
2022-12-08T15:36:15.679Z,8.53
2022-12-08T15:38:43.484Z,8.42
2022-12-08T15:41:14.952Z,8.38
2022-12-08T15:43:43.120Z,8.21
2022-12-08T15:46:10.787Z,8.25
2022-12-08T15:48:38.389Z,8.20
2022-12-08T15:51:06.396Z,8.32
2022-12-08T15:53:34.045Z,8.39
2022-12-08T15:58:55.543Z,8.55
2022-12-08T16:01:24.010Z,8.43
2022-12-08T16:04:36.999Z,8.47
2022-12-08T16:09:43.637Z,8.26
2022-12-08T16:13:26.865Z,8.25
2022-12-08T16:15:50.020Z,8.19
2022-12-08T16:18:23.316Z,8.09
2022-12-08T16:21:12.357Z,8.27
2022-12-08T16:23:43.172Z,8.11
2022-12-08T16:26:44.412Z,8.01
2022-12-08T16:29:06.080Z,8.00
2022-12-08T16:31:34.079Z,7.71
2022-12-08T16:34:02.728Z,7.72
2022-12-08T16:36:30.019Z,7.91
2022-12-08T16:38:57.654Z,7.81
2022-12-08T16:41:43.413Z,7.91
2022-12-08T16:44:11.170Z,7.98
2022-12-08T16:46:39.326Z,7.73
2022-12-08T16:49:08.913Z,7.71
2022-12-08T16:51:36.821Z,7.82
2022-12-08T16:54:04.286Z,7.80
2022-12-08T16:56:33.492Z,7.83
2022-12-08T16:59:02.481Z,7.72
2022-12-08T17:01:30.231Z,7.80
2022-12-08T17:06:45.550Z,7.74
2022-12-08T17:09:12.930Z,7.82
2022-12-08T17:11:43.459Z,7.70
2022-12-08T17:14:14.928Z,7.56
2022-12-08T17:16:43.255Z,7.53
2022-12-08T17:19:13.659Z,7.52
2022-12-08T17:21:42.168Z,7.39
2022-12-08T17:24:09.499Z,7.45
2022-12-08T17:26:36.961Z,7.33
2022-12-08T17:29:04.793Z,7.37
2022-12-08T17:31:32.794Z,7.24
2022-12-08T17:34:05.608Z,7.26
2022-12-08T17:36:33.275Z,7.28
2022-12-08T17:39:01.350Z,7.29
2022-12-08T17:41:29.637Z,7.20
2022-12-08T17:43:57.870Z,7.10
2022-12-08T17:46:25.501Z,7.14
2022-12-08T17:48:53.099Z,6.95
2022-12-08T17:51:20.771Z,6.80
2022-12-08T17:53:48.110Z,6.89
2022-12-08T17:56:21.073Z,6.77
2022-12-08T18:01:23.402Z,6.56
2022-12-08T18:03:51.658Z,6.44
2022-12-08T18:06:19.216Z,6.52
2022-12-08T18:08:46.737Z,6.46
2022-12-08T18:11:18.198Z,6.35
2022-12-08T18:13:46.785Z,6.41
2022-12-08T18:16:15.925Z,6.40
2022-12-08T18:18:43.977Z,6.18
2022-12-08T18:21:12.245Z,6.28
2022-12-08T18:23:41.652Z,6.28
2022-12-08T18:26:11.695Z,6.34
2022-12-08T18:28:39.726Z,6.45
2022-12-08T18:31:14.958Z,6.59
2022-12-08T18:33:44.739Z,6.51
2022-12-08T18:36:16.795Z,6.53
2022-12-08T18:38:48.022Z,6.34
2022-12-08T18:41:23.636Z,6.42
2022-12-08T18:43:52.081Z,6.51
2022-12-08T18:46:19.970Z,6.56
2022-12-08T18:48:49.208Z,6.48
2022-12-08T18:51:18.208Z,6.59
2022-12-08T18:53:47.700Z,6.71
2022-12-08T18:56:25.391Z,6.51
2022-12-08T18:58:58.435Z,6.39
2022-12-08T19:01:29.015Z,6.60
2022-12-08T19:04:26.668Z,6.59
2022-12-08T19:06:46.591Z,6.49
2022-12-08T19:09:14.410Z,6.47
2022-12-08T19:11:42.936Z,6.54
2022-12-08T19:14:11.108Z,6.50
2022-12-08T19:16:38.880Z,6.43
2022-12-08T19:19:09.554Z,6.40
2022-12-08T19:21:44.580Z,6.39
2022-12-08T19:24:14.156Z,6.32
2022-12-08T19:26:42.740Z,6.13
2022-12-08T19:29:10.611Z,6.15
2022-12-08T19:31:38.453Z,6.27
2022-12-08T19:34:06.634Z,6.16
2022-12-08T19:36:35.753Z,6.10
2022-12-08T19:39:22.960Z,6.12
2022-12-08T19:42:09.744Z,6.06
2022-12-08T19:44:55.687Z,6.16
2022-12-08T19:47:25.406Z,6.13
2022-12-08T19:50:15.566Z,6.24
2022-12-08T19:52:44.185Z,6.09
2022-12-08T19:55:13.034Z,6.43
2022-12-08T19:57:40.392Z,6.57
2022-12-08T20:00:09.890Z,6.53
2022-12-08T20:02:37.877Z,6.49
2022-12-08T20:05:06.650Z,6.40
2022-12-08T20:07:34.601Z,6.22
2022-12-08T20:10:06.928Z,6.36
2022-12-08T20:12:37.657Z,6.32
2022-12-08T20:15:06.474Z,6.28
2022-12-08T20:17:33.892Z,6.29
2022-12-08T20:20:06.619Z,6.31
2022-12-08T20:22:35.773Z,6.37
2022-12-08T20:25:03.460Z,6.25
2022-12-08T20:27:33.858Z,6.36
2022-12-08T20:30:01.616Z,6.36
2022-12-08T20:32:28.914Z,6.39
2022-12-08T20:34:56.326Z,6.31
2022-12-08T20:37:23.989Z,6.21
2022-12-08T20:39:52.616Z,6.20
2022-12-08T20:42:20.387Z,6.20
2022-12-08T20:44:48.212Z,6.28
2022-12-08T20:47:16.297Z,6.34
2022-12-08T20:49:43.748Z,6.24
2022-12-08T20:52:11.323Z,6.26
2022-12-08T20:54:38.982Z,6.41
2022-12-08T20:57:07.857Z,6.20
2022-12-08T20:59:35.649Z,6.19
2022-12-08T21:02:03.330Z,6.18
2022-12-08T21:04:31.134Z,6.12
2022-12-08T21:06:59.930Z,5.89
2022-12-08T21:09:27.557Z,5.87
2022-12-08T21:11:55.035Z,5.80
2022-12-08T21:14:23.037Z,5.64
2022-12-08T21:16:51.011Z,5.72
2022-12-08T21:19:20.581Z,5.55
2022-12-08T21:21:50.788Z,5.63
2022-12-08T21:24:19.010Z,5.61
2022-12-08T21:26:46.815Z,5.91
2022-12-08T21:29:14.907Z,5.97
2022-12-08T21:31:42.773Z,6.10
2022-12-08T21:34:11.470Z,6.21
2022-12-08T21:36:39.429Z,6.31
2022-12-08T21:39:12.033Z,6.18
2022-12-08T21:41:58.730Z,6.04
2022-12-08T21:44:26.794Z,6.18
2022-12-08T21:46:54.783Z,6.17
2022-12-08T21:49:22.639Z,6.02
2022-12-08T21:51:50.100Z,6.18
2022-12-08T21:54:19.252Z,6.25
2022-12-08T21:56:48.696Z,6.35
2022-12-08T21:59:17.705Z,6.29
2022-12-08T22:01:45.415Z,6.43
2022-12-08T22:04:17.592Z,6.41
2022-12-08T22:06:45.247Z,6.23
2022-12-08T22:09:15.311Z,6.14
2022-12-08T22:11:43.650Z,6.34
2022-12-08T22:14:15.009Z,6.28
2022-12-08T22:16:44.344Z,6.20
2022-12-08T22:19:12.644Z,6.22
2022-12-08T22:21:40.358Z,6.17
2022-12-08T22:24:08.243Z,5.92
2022-12-08T22:26:36.026Z,6.01
2022-12-08T22:29:03.678Z,6.05
2022-12-08T22:31:31.492Z,6.17
2022-12-08T22:33:59.533Z,6.20
2022-12-08T22:36:28.159Z,6.09
2022-12-08T22:38:56.076Z,6.08
2022-12-08T22:41:23.900Z,6.04
2022-12-08T22:43:51.424Z,6.01
2022-12-08T22:46:21.650Z,5.98
2022-12-08T22:48:49.711Z,6.03
2022-12-08T22:51:17.828Z,6.11
2022-12-08T22:53:46.663Z,6.24
2022-12-08T22:56:16.206Z,6.25
2022-12-08T22:58:44.602Z,6.21
2022-12-08T23:01:26.152Z,6.20
2022-12-08T23:03:53.668Z,6.22
2022-12-08T23:06:21.954Z,6.17
2022-12-08T23:08:49.801Z,6.10
2022-12-08T23:11:18.096Z,6.17
2022-12-08T23:13:47.608Z,5.99
2022-12-08T23:16:15.145Z,6.03
2022-12-08T23:18:44.490Z,6.20
2022-12-08T23:21:18.493Z,6.08
2022-12-08T23:23:46.932Z,6.11
2022-12-08T23:26:23.818Z,6.05
2022-12-08T23:28:51.579Z,6.18
2022-12-08T23:31:20.202Z,6.13
2022-12-08T23:33:47.841Z,6.23
2022-12-08T23:36:16.633Z,6.13
2022-12-08T23:38:44.859Z,6.12
2022-12-08T23:41:14.266Z,6.15
2022-12-08T23:43:46.799Z,6.13
2022-12-08T23:46:16.943Z,6.04
2022-12-08T23:48:45.103Z,6.05
2022-12-08T23:51:13.503Z,6.11
2022-12-08T23:53:41.712Z,6.21
2022-12-08T23:56:12.240Z,6.00
2022-12-08T23:58:41.230Z,6.07
